createdAt,value
2022-07-25T00:00:11.712Z,7.90
2022-07-25T00:02:41.608Z,8.60
2022-07-25T00:05:09.051Z,8.53
2022-07-25T00:07:38.575Z,7.50
2022-07-25T00:10:06.561Z,8.30
2022-07-25T00:12:33.693Z,7.60
2022-07-25T00:15:00.646Z,7.57
2022-07-25T00:17:27.593Z,7.20
2022-07-25T00:19:54.508Z,6.83
2022-07-25T00:22:21.497Z,7.90
2022-07-25T00:24:53.021Z,7.37
2022-07-25T00:27:22.469Z,7.90
2022-07-25T00:29:53.900Z,8.23
2022-07-25T00:32:21.033Z,8.03
2022-07-25T00:34:54.849Z,7.20
2022-07-25T00:37:22.354Z,7.70
2022-07-25T00:39:49.433Z,7.50
2022-07-25T00:42:16.305Z,6.70
2022-07-25T00:44:43.180Z,6.90
2022-07-25T00:47:12.244Z,6.00
2022-07-25T00:49:41.394Z,6.57
2022-07-25T00:52:10.834Z,6.40
2022-07-25T00:54:37.720Z,6.30
2022-07-25T00:57:04.873Z,6.73
2022-07-25T00:59:31.773Z,5.70
2022-07-25T01:01:59.176Z,6.40
2022-07-25T01:04:26.225Z,6.43
2022-07-25T01:06:53.614Z,6.10
2022-07-25T01:09:21.231Z,6.43
2022-07-25T01:11:51.102Z,6.27
2022-07-25T01:14:22.030Z,6.07
2022-07-25T01:16:51.137Z,5.83
2022-07-25T01:19:20.657Z,6.37
2022-07-25T01:21:47.621Z,6.50
2022-07-25T01:24:16.991Z,5.80
2022-07-25T01:26:43.843Z,5.90
2022-07-25T01:29:13.215Z,5.30
2022-07-25T01:31:42.755Z,5.53
2022-07-25T01:34:11.811Z,5.10
2022-07-25T01:36:44.164Z,5.67
2022-07-25T01:39:16.088Z,5.33
2022-07-25T01:41:43.225Z,5.57
2022-07-25T01:44:10.351Z,5.00
2022-07-25T01:46:39.700Z,5.80
2022-07-25T01:49:06.875Z,5.13
2022-07-25T01:51:36.383Z,5.73
2022-07-25T01:54:03.958Z,5.83
2022-07-25T01:56:35.864Z,5.50
2022-07-25T01:59:02.835Z,4.63
2022-07-25T02:01:29.739Z,4.50
2022-07-25T02:04:00.141Z,5.00
2022-07-25T02:06:29.350Z,4.90
2022-07-25T02:08:58.786Z,4.60
2022-07-25T02:11:25.689Z,5.07
2022-07-25T02:13:52.569Z,5.20
2022-07-25T02:16:19.533Z,5.13
2022-07-25T02:18:58.669Z,4.50
2022-07-25T02:21:28.332Z,4.67
2022-07-25T02:23:57.784Z,4.43
2022-07-25T02:26:24.767Z,4.53
2022-07-25T02:28:51.885Z,4.53
2022-07-25T02:31:21.167Z,4.30
2022-07-25T02:33:48.026Z,4.83
2022-07-25T02:36:14.986Z,5.03
2022-07-25T02:38:44.375Z,4.60
2022-07-25T02:41:13.477Z,4.80
2022-07-25T02:43:40.389Z,4.97
2022-07-25T02:46:11.911Z,4.90
2022-07-25T02:48:39.073Z,4.80
2022-07-25T02:51:06.280Z,5.17
2022-07-25T02:53:55.931Z,4.30
2022-07-25T02:56:24.401Z,4.80
2022-07-25T02:58:51.453Z,5.00
2022-07-25T03:01:18.378Z,4.43
2022-07-25T03:03:50.006Z,4.00
2022-07-25T03:06:21.723Z,4.20
2022-07-25T03:08:48.609Z,3.97
2022-07-25T03:11:16.840Z,4.70
2022-07-25T03:13:44.180Z,4.80
2022-07-25T03:16:11.366Z,4.70
2022-07-25T03:18:40.863Z,4.20
2022-07-25T03:21:09.915Z,4.57
2022-07-25T03:23:36.874Z,4.20
2022-07-25T03:26:03.838Z,4.23
2022-07-25T03:28:30.670Z,5.00
2022-07-25T03:30:58.026Z,4.57
2022-07-25T03:33:24.868Z,4.70
2022-07-25T03:35:53.979Z,4.53
2022-07-25T03:38:24.648Z,4.60
2022-07-25T03:40:58.994Z,4.27
2022-07-25T03:43:30.733Z,5.27
2022-07-25T03:45:57.690Z,4.57
2022-07-25T03:48:29.633Z,3.97
2022-07-25T03:51:06.694Z,4.80
2022-07-25T03:53:54.480Z,3.90
2022-07-25T03:56:23.926Z,4.47
2022-07-25T03:58:55.435Z,3.90
2022-07-25T04:01:22.498Z,4.50
2022-07-25T04:03:49.688Z,4.27
2022-07-25T04:06:16.613Z,4.33
2022-07-25T04:08:43.457Z,4.40
2022-07-25T04:11:10.349Z,4.63
2022-07-25T04:13:40.360Z,4.37
2022-07-25T04:16:16.328Z,4.80
2022-07-25T04:18:53.292Z,4.40
2022-07-25T04:21:20.880Z,3.50
2022-07-25T04:23:49.505Z,4.50
2022-07-25T04:26:16.794Z,4.10
2022-07-25T04:28:44.027Z,4.10
2022-07-25T04:31:15.504Z,3.77
2022-07-25T04:33:43.029Z,4.10
2022-07-25T04:36:10.216Z,3.73
2022-07-25T04:38:39.782Z,3.37
2022-07-25T04:41:06.783Z,3.77
2022-07-25T04:43:37.128Z,3.77
2022-07-25T04:46:04.296Z,4.10
2022-07-25T04:48:33.522Z,3.70
2022-07-25T04:51:00.579Z,3.90
2022-07-25T04:53:27.701Z,3.30
2022-07-25T04:55:54.621Z,3.70
2022-07-25T04:58:23.664Z,3.63
2022-07-25T05:00:51.104Z,3.80
2022-07-25T05:03:20.198Z,3.50
2022-07-25T05:05:47.104Z,3.63
2022-07-25T05:08:16.068Z,3.10
2022-07-25T05:10:45.846Z,3.23
2022-07-25T05:13:15.241Z,4.00
2022-07-25T05:15:43.204Z,4.00
2022-07-25T05:18:12.393Z,3.43
2022-07-25T05:20:44.025Z,3.70
2022-07-25T05:23:10.864Z,3.43
2022-07-25T05:25:39.844Z,3.70
2022-07-25T05:28:06.790Z,3.50
2022-07-25T05:30:39.359Z,3.40
2022-07-25T05:33:06.862Z,3.50
2022-07-25T05:35:33.744Z,3.70
2022-07-25T05:38:00.776Z,2.90
2022-07-25T05:40:27.649Z,3.90
2022-07-25T05:43:02.389Z,3.67
2022-07-25T05:45:30.172Z,3.43
2022-07-25T05:47:57.004Z,3.40
2022-07-25T05:50:23.922Z,3.60
2022-07-25T05:52:55.502Z,3.67
2022-07-25T05:55:24.443Z,3.80
2022-07-25T05:57:51.320Z,4.23
2022-07-25T06:00:25.123Z,3.33
2022-07-25T06:02:52.146Z,3.60
2022-07-25T06:05:21.345Z,4.03
2022-07-25T06:07:50.484Z,3.37
2022-07-25T06:10:17.503Z,3.87
2022-07-25T06:12:44.455Z,3.60
2022-07-25T06:15:22.882Z,4.00
2022-07-25T06:17:58.269Z,3.33
2022-07-25T06:20:26.368Z,4.23
2022-07-25T06:22:55.833Z,4.03
2022-07-25T06:25:22.919Z,4.00
2022-07-25T06:27:51.869Z,3.57
2022-07-25T06:30:20.365Z,3.93
2022-07-25T06:32:51.586Z,4.13
2022-07-25T06:35:19.091Z,3.90
2022-07-25T06:37:46.584Z,3.60
2022-07-25T06:40:14.354Z,3.63
2022-07-25T06:42:47.185Z,4.10
2022-07-25T06:45:15.378Z,3.70
2022-07-25T06:47:45.571Z,3.30
2022-07-25T06:50:16.120Z,4.37
2022-07-25T06:52:42.990Z,3.87
2022-07-25T06:55:11.301Z,3.77
2022-07-25T06:57:38.417Z,4.07
2022-07-25T07:00:09.977Z,3.67
2022-07-25T07:02:53.397Z,4.30
2022-07-25T07:05:20.873Z,4.17
2022-07-25T07:07:48.391Z,4.23
2022-07-25T07:10:16.351Z,4.10
2022-07-25T07:12:44.117Z,5.10
2022-07-25T07:15:14.511Z,3.80
2022-07-25T07:17:44.041Z,4.43
2022-07-25T07:20:11.875Z,4.17
2022-07-25T07:22:49.309Z,4.60
2022-07-25T07:25:19.655Z,4.50
2022-07-25T07:27:49.976Z,4.30
2022-07-25T07:30:23.690Z,4.97
2022-07-25T07:32:54.315Z,4.47
2022-07-25T07:35:21.394Z,4.20
2022-07-25T07:37:48.880Z,5.30
2022-07-25T07:40:17.992Z,5.10
2022-07-25T07:42:47.988Z,4.57
2022-07-25T07:45:24.182Z,5.07
2022-07-25T07:47:53.368Z,4.30
2022-07-25T07:50:25.949Z,4.83
2022-07-25T07:52:58.613Z,4.23
2022-07-25T07:55:44.483Z,4.33
2022-07-25T07:58:20.196Z,4.73
2022-07-25T08:00:52.031Z,4.20
2022-07-25T08:03:23.560Z,4.60
2022-07-25T08:05:54.995Z,4.60
2022-07-25T08:08:22.070Z,4.60
2022-07-25T08:10:56.944Z,5.70
2022-07-25T08:13:30.349Z,5.17
2022-07-25T08:16:03.293Z,5.37
2022-07-25T08:18:33.978Z,5.07
2022-07-25T08:21:08.240Z,5.30
2022-07-25T08:23:38.882Z,5.93
2022-07-25T08:26:06.771Z,5.03
2022-07-25T08:28:33.812Z,5.60
2022-07-25T08:31:01.254Z,5.53
2022-07-25T08:33:28.420Z,5.73
2022-07-25T08:35:56.513Z,5.57
2022-07-25T08:38:26.412Z,6.33
2022-07-25T08:40:57.377Z,5.67
2022-07-25T08:43:27.262Z,6.13
2022-07-25T08:45:55.690Z,6.50
2022-07-25T08:48:27.050Z,6.40
2022-07-25T08:50:57.447Z,6.00
2022-07-25T08:53:34.401Z,6.27
2022-07-25T08:56:10.641Z,5.90
2022-07-25T08:58:41.812Z,6.13
2022-07-25T09:01:12.724Z,6.00
2022-07-25T09:03:40.375Z,5.13
2022-07-25T09:06:22.568Z,6.80
2022-07-25T09:08:58.945Z,6.03
2022-07-25T09:11:37.377Z,6.00
2022-07-25T09:14:15.089Z,5.40
2022-07-25T09:16:46.425Z,6.60
2022-07-25T09:19:20.994Z,5.97
2022-07-25T09:22:10.351Z,6.27
2022-07-25T09:24:45.169Z,6.53
2022-07-25T09:27:13.038Z,5.90
2022-07-25T09:29:45.408Z,6.93
2022-07-25T09:32:22.101Z,6.57
2022-07-25T09:34:50.864Z,6.63
2022-07-25T09:37:25.209Z,5.77
2022-07-25T09:39:52.491Z,6.20
2022-07-25T09:42:32.214Z,7.03
2022-07-25T09:45:12.631Z,6.40
2022-07-25T09:48:06.676Z,6.00
2022-07-25T09:50:33.878Z,6.10
2022-07-25T09:53:02.779Z,5.53
2022-07-25T09:55:30.821Z,5.87
2022-07-25T09:57:58.069Z,5.53
2022-07-25T10:00:31.827Z,6.13
2022-07-25T10:03:39.157Z,5.93
2022-07-25T10:06:14.488Z,6.40
2022-07-25T10:08:41.991Z,6.00
2022-07-25T10:11:25.841Z,6.10
2022-07-25T10:14:09.155Z,6.17
2022-07-25T10:16:47.048Z,5.70
2022-07-25T10:19:19.621Z,6.90
2022-07-25T10:21:57.883Z,6.20
2022-07-25T10:24:34.419Z,6.10
2022-07-25T10:27:12.790Z,6.10
2022-07-25T10:29:41.643Z,6.13
2022-07-25T10:32:14.058Z,5.20
2022-07-25T10:34:41.000Z,5.80
2022-07-25T10:37:18.390Z,4.90
2022-07-25T10:39:46.333Z,6.00
2022-07-25T10:42:16.078Z,5.30
2022-07-25T10:44:49.980Z,5.20
2022-07-25T10:47:18.094Z,5.33
2022-07-25T10:50:16.467Z,6.07
2022-07-25T10:52:44.425Z,5.00
2022-07-25T10:55:22.500Z,5.80
2022-07-25T10:58:22.158Z,5.83
2022-07-25T11:00:54.170Z,5.10
2022-07-25T11:03:29.181Z,4.97
2022-07-25T11:05:56.036Z,4.47
2022-07-25T11:08:33.058Z,5.70
2022-07-25T11:11:02.748Z,5.03
2022-07-25T11:13:30.433Z,4.60
2022-07-25T11:16:00.735Z,4.43
2022-07-25T11:18:43.626Z,4.30
2022-07-25T11:21:12.682Z,4.30
2022-07-25T11:23:40.765Z,5.00
2022-07-25T11:26:15.292Z,4.60
2022-07-25T11:28:52.063Z,4.07
2022-07-25T11:31:22.952Z,5.20
2022-07-25T11:33:52.408Z,5.47
2022-07-25T11:36:21.976Z,6.13
2022-07-25T11:38:51.717Z,4.47
2022-07-25T11:41:30.274Z,4.30
2022-07-25T11:43:59.788Z,4.63
2022-07-25T11:46:31.219Z,4.70
2022-07-25T11:49:08.938Z,4.90
2022-07-25T11:51:38.909Z,4.90
2022-07-25T11:54:13.310Z,5.03
2022-07-25T11:56:42.825Z,4.70
2022-07-25T11:59:11.338Z,4.90
2022-07-25T12:01:45.020Z,4.20
2022-07-25T12:04:21.001Z,5.70
2022-07-25T12:06:52.118Z,4.90
2022-07-25T12:09:22.379Z,4.37
2022-07-25T12:12:01.362Z,4.80
2022-07-25T12:14:32.327Z,5.23
2022-07-25T12:17:02.225Z,4.77
2022-07-25T12:19:29.309Z,5.30
2022-07-25T12:21:56.188Z,5.20
2022-07-25T12:24:23.573Z,4.53
2022-07-25T12:26:50.455Z,6.50
2022-07-25T12:29:19.821Z,4.80
2022-07-25T12:31:48.794Z,4.80
2022-07-25T12:34:15.720Z,5.23
2022-07-25T12:36:45.571Z,4.40
2022-07-25T12:39:19.719Z,4.37
2022-07-25T12:41:49.708Z,4.23
2022-07-25T12:44:16.621Z,4.80
2022-07-25T12:46:49.219Z,4.30
2022-07-25T12:49:19.747Z,4.80
2022-07-25T12:51:46.679Z,4.87
2022-07-25T12:54:21.862Z,4.20
2022-07-25T12:56:51.675Z,4.77
2022-07-25T12:59:21.236Z,4.27
2022-07-25T13:01:48.505Z,4.80
2022-07-25T13:04:17.779Z,4.33
2022-07-25T13:06:47.177Z,4.83
2022-07-25T13:09:16.610Z,5.10
2022-07-25T13:11:43.642Z,5.07
2022-07-25T13:14:10.751Z,4.97
2022-07-25T13:16:37.986Z,5.70
2022-07-25T13:19:08.828Z,5.60
2022-07-25T13:21:38.956Z,5.70
2022-07-25T13:24:12.621Z,5.40
2022-07-25T13:26:39.988Z,6.13
2022-07-25T13:29:11.877Z,5.67
2022-07-25T13:31:42.912Z,5.00
2022-07-25T13:34:10.741Z,5.93
2022-07-25T13:36:39.505Z,6.30
2022-07-25T13:39:09.272Z,5.33
2022-07-25T13:41:36.363Z,5.70
2022-07-25T13:44:05.917Z,5.60
2022-07-25T13:46:33.795Z,6.73
2022-07-25T13:49:00.959Z,6.40
2022-07-25T13:51:27.888Z,6.50
2022-07-25T13:53:55.097Z,5.50
2022-07-25T13:56:24.297Z,6.50
2022-07-25T13:58:53.739Z,5.60
2022-07-25T14:01:20.746Z,5.63
2022-07-25T14:03:47.852Z,6.30
2022-07-25T14:06:14.751Z,5.90
2022-07-25T14:08:44.801Z,5.80
2022-07-25T14:11:14.683Z,5.77
2022-07-25T14:13:43.504Z,6.00
2022-07-25T14:16:10.419Z,6.17
2022-07-25T14:18:37.357Z,6.03
2022-07-25T14:21:09.328Z,5.63
2022-07-25T14:23:36.245Z,5.90
2022-07-25T14:26:03.437Z,5.60
2022-07-25T14:28:30.610Z,5.70
2022-07-25T14:31:00.226Z,5.17
2022-07-25T14:33:31.719Z,5.90
2022-07-25T14:35:59.626Z,5.70
2022-07-25T14:38:26.575Z,5.17
2022-07-25T14:40:57.952Z,5.10
2022-07-25T14:43:24.836Z,5.20
2022-07-25T14:45:54.308Z,5.43
2022-07-25T14:48:21.182Z,5.73
2022-07-25T14:50:48.078Z,5.63
2022-07-25T14:53:15.033Z,5.80
2022-07-25T14:55:44.164Z,5.73
2022-07-25T14:58:12.097Z,5.73
2022-07-25T15:00:42.745Z,5.77
2022-07-25T15:03:12.838Z,5.20
2022-07-25T15:05:41.598Z,5.60
2022-07-25T15:08:08.496Z,5.43
2022-07-25T15:10:35.396Z,5.77
2022-07-25T15:13:29.278Z,5.80
2022-07-25T15:15:54.695Z,6.20
2022-07-25T15:18:22.056Z,5.03
2022-07-25T15:20:48.943Z,5.53
2022-07-25T15:23:15.881Z,5.60
2022-07-25T15:26:01.063Z,5.73
2022-07-25T15:28:29.061Z,5.67
2022-07-25T15:30:55.978Z,5.87
2022-07-25T15:33:25.941Z,5.70
2022-07-25T15:35:53.144Z,5.80
2022-07-25T15:38:22.941Z,6.40
2022-07-25T15:40:50.136Z,6.90
2022-07-25T15:43:19.192Z,7.37
2022-07-25T15:45:46.867Z,8.50
2022-07-25T15:48:18.074Z,10.73
2022-07-25T15:50:55.912Z,10.17
2022-07-25T15:53:22.885Z,10.43
2022-07-25T15:55:54.500Z,12.50
2022-07-25T15:58:24.508Z,12.10
2022-07-25T16:00:54.458Z,11.90
2022-07-25T16:03:21.685Z,11.67
2022-07-25T16:05:51.668Z,10.60
2022-07-25T16:08:18.704Z,9.47
2022-07-25T16:10:48.258Z,9.13
2022-07-25T16:13:15.157Z,11.10
2022-07-25T16:15:44.262Z,8.37
2022-07-25T16:18:13.284Z,10.20
2022-07-25T16:20:42.583Z,9.37
2022-07-25T16:23:09.715Z,9.20
2022-07-25T16:25:36.583Z,9.13
2022-07-25T16:28:03.624Z,9.33
2022-07-25T16:30:32.987Z,9.70
2022-07-25T16:33:02.996Z,9.73
2022-07-25T16:35:32.610Z,8.43
2022-07-25T16:37:59.504Z,9.23
2022-07-25T16:40:30.899Z,8.83
2022-07-25T16:42:59.320Z,8.03
2022-07-25T16:45:27.214Z,9.00
2022-07-25T16:47:54.448Z,7.87
2022-07-25T16:50:23.961Z,8.03
2022-07-25T16:52:56.368Z,8.33
2022-07-25T16:55:25.476Z,8.40
2022-07-25T16:57:55.031Z,7.60
2022-07-25T17:00:24.915Z,8.10
2022-07-25T17:02:51.858Z,7.03
2022-07-25T17:05:18.885Z,7.53
2022-07-25T17:07:57.122Z,7.43
2022-07-25T17:10:26.649Z,7.10
2022-07-25T17:12:53.726Z,7.87
2022-07-25T17:15:20.779Z,8.53
2022-07-25T17:17:47.749Z,8.27
2022-07-25T17:20:14.811Z,7.80
2022-07-25T17:22:44.081Z,8.07
2022-07-25T17:25:11.848Z,8.47
2022-07-25T17:27:41.851Z,7.80
2022-07-25T17:30:11.904Z,7.33
2022-07-25T17:32:39.600Z,7.47
2022-07-25T17:35:06.749Z,7.27
2022-07-25T17:37:36.189Z,7.70
2022-07-25T17:40:08.645Z,7.50
2022-07-25T17:42:35.543Z,7.20
2022-07-25T17:45:05.810Z,7.40
2022-07-25T17:47:34.689Z,7.50
2022-07-25T17:50:06.814Z,6.87
2022-07-25T17:52:38.193Z,7.13
2022-07-25T17:55:05.776Z,7.03
2022-07-25T17:57:33.100Z,6.80
2022-07-25T18:00:00.795Z,7.30
2022-07-25T18:02:33.846Z,7.27
2022-07-25T18:05:00.781Z,6.70
2022-07-25T18:07:27.624Z,6.10
2022-07-25T18:09:56.666Z,8.63
2022-07-25T18:12:29.445Z,6.80
2022-07-25T18:14:56.622Z,6.43
2022-07-25T18:17:23.461Z,7.83
2022-07-25T18:19:53.390Z,7.43
2022-07-25T18:22:23.213Z,6.40
2022-07-25T18:24:50.088Z,7.03
2022-07-25T18:27:19.740Z,7.77
2022-07-25T18:29:46.682Z,6.73
2022-07-25T18:32:13.566Z,7.10
2022-07-25T18:34:40.578Z,7.13
2022-07-25T18:37:10.511Z,8.10
2022-07-25T18:39:37.378Z,7.63
2022-07-25T18:42:06.355Z,7.70
2022-07-25T18:44:33.320Z,7.60
2022-07-25T18:47:01.430Z,7.83
2022-07-25T18:49:31.265Z,8.80
2022-07-25T18:51:58.227Z,8.20
2022-07-25T18:54:27.200Z,6.97
2022-07-25T18:56:54.151Z,8.17
2022-07-25T18:59:21.140Z,8.87
2022-07-25T19:01:48.067Z,8.00
2022-07-25T19:04:15.392Z,8.43
2022-07-25T19:06:42.312Z,8.50
2022-07-25T19:09:11.822Z,9.30
2022-07-25T19:11:42.365Z,8.87
2022-07-25T19:14:10.089Z,8.70
2022-07-25T19:16:41.957Z,8.90
2022-07-25T19:19:09.719Z,8.10
2022-07-25T19:21:37.747Z,9.57
2022-07-25T19:24:05.718Z,9.63
2022-07-25T19:26:32.995Z,9.47
2022-07-25T19:29:02.935Z,9.03
2022-07-25T19:31:29.977Z,10.17
2022-07-25T19:33:56.983Z,10.27
2022-07-25T19:36:23.864Z,10.30
2022-07-25T19:38:53.801Z,12.10
2022-07-25T19:41:23.433Z,11.63
2022-07-25T19:43:52.450Z,9.87
2022-07-25T19:46:22.203Z,8.67
2022-07-25T19:48:50.173Z,9.30
2022-07-25T19:51:20.210Z,9.10
2022-07-25T19:53:47.140Z,10.30
2022-07-25T19:56:13.986Z,9.23
2022-07-25T19:58:43.230Z,8.97
2022-07-25T20:01:11.813Z,8.93
2022-07-25T20:03:39.077Z,9.13
2022-07-25T20:06:08.261Z,10.77
2022-07-25T20:08:37.199Z,10.40
2022-07-25T20:11:04.202Z,11.50
2022-07-25T20:13:31.086Z,9.80
2022-07-25T20:15:58.708Z,10.20
2022-07-25T20:18:26.145Z,10.33
2022-07-25T20:20:53.358Z,11.07
2022-07-25T20:23:23.421Z,11.23
2022-07-25T20:25:51.032Z,9.90
2022-07-25T20:28:18.037Z,10.20
2022-07-25T20:30:44.989Z,10.50
2022-07-25T20:33:12.032Z,11.03
2022-07-25T20:35:41.579Z,11.73
2022-07-25T20:38:11.840Z,10.80
2022-07-25T20:40:46.352Z,10.80
2022-07-25T20:43:17.570Z,11.63
2022-07-25T20:45:47.885Z,11.07
2022-07-25T20:48:14.873Z,11.60
2022-07-25T20:50:43.956Z,10.47
2022-07-25T20:53:13.398Z,11.17
2022-07-25T20:55:42.795Z,11.80
2022-07-25T20:58:09.720Z,11.40
2022-07-25T21:00:36.707Z,11.60
2022-07-25T21:03:08.636Z,11.40
2022-07-25T21:05:37.646Z,11.17
2022-07-25T21:08:10.951Z,11.13
2022-07-25T21:10:39.431Z,10.90
2022-07-25T21:13:06.546Z,10.73
2022-07-25T21:15:36.606Z,10.23
2022-07-25T21:18:03.673Z,9.77
2022-07-25T21:20:35.129Z,8.20
2022-07-25T21:23:01.958Z,8.23
2022-07-25T21:25:31.836Z,7.27
2022-07-25T21:27:58.781Z,7.00
2022-07-25T21:30:25.942Z,7.07
2022-07-25T21:32:52.825Z,6.70
2022-07-25T21:35:22.375Z,6.90
2022-07-25T21:37:52.386Z,6.27
2022-07-25T21:40:21.801Z,5.43
2022-07-25T21:42:48.693Z,5.73
2022-07-25T21:45:17.940Z,5.67
2022-07-25T21:47:44.946Z,5.30
2022-07-25T21:50:30.935Z,6.40
2022-07-25T21:52:58.560Z,6.10
2022-07-25T21:55:28.802Z,5.97
2022-07-25T21:57:55.673Z,5.90
2022-07-25T22:00:23.188Z,4.77
2022-07-25T22:02:55.334Z,6.10
2022-07-25T22:05:25.017Z,5.03
2022-07-25T22:07:54.644Z,4.90
2022-07-25T22:10:22.497Z,5.30
2022-07-25T22:12:49.685Z,5.53
2022-07-25T22:15:17.333Z,5.33
2022-07-25T22:17:49.768Z,5.57
2022-07-25T22:20:19.434Z,5.63
2022-07-25T22:22:48.895Z,5.37
2022-07-25T22:25:17.104Z,5.07
2022-07-25T22:27:46.463Z,5.03
2022-07-25T22:30:18.874Z,5.40
2022-07-25T22:32:48.105Z,5.80
2022-07-25T22:35:15.985Z,5.00
2022-07-25T22:37:44.382Z,5.27
2022-07-25T22:40:12.735Z,5.30
2022-07-25T22:42:39.603Z,4.90
2022-07-25T22:45:09.626Z,4.90
2022-07-25T22:47:36.519Z,4.40
2022-07-25T22:50:05.359Z,4.67
2022-07-25T22:52:34.908Z,4.63
2022-07-25T22:55:01.806Z,5.37
2022-07-25T22:57:28.675Z,4.83
2022-07-25T22:59:55.606Z,4.83
2022-07-25T23:02:27.970Z,4.67
2022-07-25T23:04:57.075Z,5.10
2022-07-25T23:07:26.058Z,4.27
2022-07-25T23:09:55.040Z,4.30
2022-07-25T23:12:24.141Z,3.73
2022-07-25T23:14:51.032Z,4.20
2022-07-25T23:17:18.113Z,3.97
2022-07-25T23:19:50.109Z,3.50
2022-07-25T23:22:19.466Z,3.60
2022-07-25T23:24:47.019Z,3.93
2022-07-25T23:27:14.277Z,4.23
2022-07-25T23:29:41.980Z,3.80
2022-07-25T23:32:11.457Z,3.60
2022-07-25T23:34:42.887Z,3.40
2022-07-25T23:37:12.554Z,3.67
2022-07-25T23:39:42.440Z,3.80
2022-07-25T23:42:11.471Z,3.83
2022-07-25T23:44:42.091Z,4.27
2022-07-25T23:47:11.365Z,3.70
2022-07-25T23:49:40.908Z,3.77
2022-07-25T23:52:10.308Z,3.27
2022-07-25T23:54:38.725Z,3.30
2022-07-25T23:57:08.908Z,4.17
2022-07-25T23:59:38.879Z,4.03
